Relevés horaires Schaffen (Belgique)


Relevés horaires à Schaffen - Dimanche 01 Mars 2020
Heure UTC1 Température [°C] Vent [km/h] Hum. [%] Pres.4 [hPa] Visi. [Km] Nébu. [octa] Préc.5 [mm] Cond.
2m. Res. Ros. Dir.2 Vit. Moy. Raf.3
23:00 5.4 4.3 2.1 SSO 5.6 -- 9.3 79 994.1(1.2/3h) 20 -- -- --
22:00 6.0 5 1.6 SO 5.6 -- 11.1 73 993.9(1.5/3h) 20 -- -- --
21:00 6.4 6.4 1.9 OSO 3.7 -- 7.4 73 993.5(1.4/3h) 20 -- -- --
20:00 6.5 6.5 4.1 NNO 1.9 -- 7.4 85 992.8(1.0/3h) 20 -- -- --
19:00 6.9 6.9 4.2 NNO 3.7 -- 5.6 83 992.4(0.1/3h) 20 -- -- --
18:00 7.1 7.1 4.0 S 3.7 -- 24.1 81 992(-0.8/3h) 20 -- -- --
17:00 8.4 8.4 1.7 SO 3.7 -- 9.3 63 991.7(-1.8/3h) 20 -- -- --
16:00 9.1 8.6 1.4 SO 5.6 -- 14.8 58 992.2(-1.8/3h) 20 -- -- --
15:00 9.3 8.3 1.4 SSO 7.4 -- 24.1 58 992.9(-1.9/3h) 20 -- -- --
14:00 9.2 7.5 1.1 SSO 11.1 -- 18.5 57 993.5(-1.4/3h) 20 -- -- --
13:00 8.8 7.3 1.5 SSO 9.3 -- 24.1 60 994.1(-0.8/3h) 20 -- -- --
12:00 9.0 7.2 0.4 SO 11.1 -- 27.8 55 994.7(0.1/3h) 20 -- -- --
11:00 7.9 5.9 1.1 SO 11.1 -- 25.9 62 995(0.2/3h) 20 -- -- --
10:00 7.6 5.2 1.4 SSO 13.0 -- 24.1 65 994.9(0.7/3h) 20 -- -- --
09:00 7.2 4.8 1.5 SSO 13.0 -- 27.8 67 995(0.7/3h) 20 -- -- --
08:00 6.8 4.6 1.5 SSO 11.1 -- 20.4 69 994.8(0.5/3h) 20 -- -- --
07:00 6.6 4.7 1.2 SO 9.3 -- 20.4 68 994.2(-0.1/3h) 20 -- -- --
06:00 6.7 4.8 1.1 SO 9.3 -- 24.1 67 994.3(-0.1/3h) 20 -- trace/12h
--
05:00 6.6 4.4 1.4 SO 11.1 -- 22.2 69 994.2(-0.4/3h) 20 -- -- --
04:00 6.0 3.6 1.7 SSO 11.1 -- 18.5 74 994.3(-0.7/3h) 20 -- -- --
03:00 5.6 3.5 1.2 SSO 9.3 -- 20.4 73 994.4(-0.8/3h) 20 -- -- --
02:00 5.2 3.1 1.2 SSO 9.3 -- 20.4 75 994.6(-0.6/3h) 20 -- -- --
01:00 5.3 2.8 0.9 SSO 11.1 -- 18.5 73 995.1(0.1/3h) 20 -- -- --
00:00 5.5 3 1.6 SSO 11.1 -- 18.5 76 995.3(0.2/3h) 20 -- trace/6h
NA

1 Coordinated Universal Time. Actuellement il est 08:00 locale et 07:00 UTC.

2 Le vent souffle depuis la direction indiquée vers la direction oposée.

3 Les rafales max. sont disponible 40 min après l'heure du relevé.

4 Pour les stations d'altitude (plus de 600m) le géopotentiel du niveau le plus proche de la pression obligatoire est indiqué.

5 Les stations disposant d'un diffuseur peuvent indiquer "trace". Cela signifie que des précipitations ont touchés le sol mais que la quantité est inférieure à 0.1 mm.

Récapitulatif de la journée
Température [°C] Vent [km/h] Ensoleillement4 [h] Precipitations totale5 [mm] Pression [Hpa]
Min1 Max.2 Moy.3 Max. Min Max.
5.0 10.1 0 27.8 0 h 0 min 0 991.7 995.3

1 Température minimale relevée entre 18:00 UTC la veille et 18:00 UTC le jour donné.

2 Température maximale relevée entre 06:00 UTC le jour donné et 06:00 UTC le lendemain.

3 Vent moyen de la journée basé sur les relevés horaires.

4 Ensoleillement en heures relevé entre 06:00 UTC la veille et 06:00 UTC le jour donné.

5 Précipitations totales tombées entre 06:00 UTC la jour donné et 06:00 UTC le lendemain.

Graphiques horaires